sensor_id;sensor_type;location;lat;lon;timestamp;P1;durP1;ratioP1;P2;durP2;ratioP2
72388;SDS011;60566;48.062;9.930;2022-12-18T00:02:04;39.00;;;14.65;;
72388;SDS011;60566;48.062;9.930;2022-12-18T00:04:29;47.15;;;16.10;;
72388;SDS011;60566;48.062;9.930;2022-12-18T00:06:55;37.97;;;16.42;;
72388;SDS011;60566;48.062;9.930;2022-12-18T00:09:21;37.50;;;14.73;;
72388;SDS011;60566;48.062;9.930;2022-12-18T00:11:47;38.50;;;14.32;;
72388;SDS011;60566;48.062;9.930;2022-12-18T00:14:13;40.90;;;13.18;;
72388;SDS011;60566;48.062;9.930;2022-12-18T00:16:39;35.63;;;13.70;;
72388;SDS011;60566;48.062;9.930;2022-12-18T00:19:05;41.35;;;13.85;;
72388;SDS011;60566;48.062;9.930;2022-12-18T00:21:31;43.28;;;15.50;;
72388;SDS011;60566;48.062;9.930;2022-12-18T00:23:57;41.80;;;16.20;;
72388;SDS011;60566;48.062;9.930;2022-12-18T00:26:26;46.63;;;14.63;;
72388;SDS011;60566;48.062;9.930;2022-12-18T00:28:54;36.97;;;13.63;;
72388;SDS011;60566;48.062;9.930;2022-12-18T00:31:20;37.28;;;14.85;;
72388;SDS011;60566;48.062;9.930;2022-12-18T00:33:47;40.38;;;16.60;;
72388;SDS011;60566;48.062;9.930;2022-12-18T00:36:13;33.45;;;13.77;;
72388;SDS011;60566;48.062;9.930;2022-12-18T00:38:39;41.28;;;15.88;;
72388;SDS011;60566;48.062;9.930;2022-12-18T00:41:05;41.33;;;16.10;;
72388;SDS011;60566;48.062;9.930;2022-12-18T00:43:31;39.40;;;15.32;;
72388;SDS011;60566;48.062;9.930;2022-12-18T00:45:57;41.58;;;12.88;;
72388;SDS011;60566;48.062;9.930;2022-12-18T00:48:23;41.28;;;16.35;;
72388;SDS011;60566;48.062;9.930;2022-12-18T00:50:49;46.75;;;18.10;;
72388;SDS011;60566;48.062;9.930;2022-12-18T00:53:14;39.10;;;15.40;;
72388;SDS011;60566;48.062;9.930;2022-12-18T00:55:40;42.33;;;16.00;;
72388;SDS011;60566;48.062;9.930;2022-12-18T00:58:06;39.40;;;13.20;;
72388;SDS011;60566;48.062;9.930;2022-12-18T01:00:31;39.55;;;14.55;;
72388;SDS011;60566;48.062;9.930;2022-12-18T01:02:58;44.13;;;16.70;;
72388;SDS011;60566;48.062;9.930;2022-12-18T01:05:23;39.90;;;16.42;;
72388;SDS011;60566;48.062;9.930;2022-12-18T01:07:49;40.72;;;17.80;;
72388;SDS011;60566;48.062;9.930;2022-12-18T01:10:15;37.75;;;13.90;;
72388;SDS011;60566;48.062;9.930;2022-12-18T01:12:40;43.50;;;15.48;;
72388;SDS011;60566;48.062;9.930;2022-12-18T01:15:06;45.83;;;15.85;;
72388;SDS011;60566;48.062;9.930;2022-12-18T01:17:32;44.90;;;16.10;;
72388;SDS011;60566;48.062;9.930;2022-12-18T01:20:00;39.28;;;15.13;;
72388;SDS011;60566;48.062;9.930;2022-12-18T01:22:25;44.88;;;17.58;;
72388;SDS011;60566;48.062;9.930;2022-12-18T01:24:50;45.85;;;15.70;;
72388;SDS011;60566;48.062;9.930;2022-12-18T01:27:16;47.70;;;17.63;;
72388;SDS011;60566;48.062;9.930;2022-12-18T01:29:41;51.30;;;18.90;;
72388;SDS011;60566;48.062;9.930;2022-12-18T01:32:07;41.22;;;15.65;;
72388;SDS011;60566;48.062;9.930;2022-12-18T01:34:32;44.33;;;15.77;;
72388;SDS011;60566;48.062;9.930;2022-12-18T01:36:59;43.95;;;16.35;;
72388;SDS011;60566;48.062;9.930;2022-12-18T01:39:27;45.28;;;18.67;;
72388;SDS011;60566;48.062;9.930;2022-12-18T01:41:52;43.20;;;15.98;;
72388;SDS011;60566;48.062;9.930;2022-12-18T01:47:28;43.72;;;16.13;;
72388;SDS011;60566;48.062;9.930;2022-12-18T01:49:56;40.28;;;14.43;;
72388;SDS011;60566;48.062;9.930;2022-12-18T01:52:24;43.35;;;17.20;;
72388;SDS011;60566;48.062;9.930;2022-12-18T01:54:50;40.45;;;15.98;;
72388;SDS011;60566;48.062;9.930;2022-12-18T01:57:15;39.58;;;14.27;;
72388;SDS011;60566;48.062;9.930;2022-12-18T01:59:41;39.65;;;14.77;;
72388;SDS011;60566;48.062;9.930;2022-12-18T02:02:08;46.88;;;16.70;;
72388;SDS011;60566;48.062;9.930;2022-12-18T02:04:33;43.10;;;15.73;;
72388;SDS011;60566;48.062;9.930;2022-12-18T02:06:59;35.08;;;16.02;;
72388;SDS011;60566;48.062;9.930;2022-12-18T02:09:33;39.72;;;14.80;;
72388;SDS011;60566;48.062;9.930;2022-12-18T02:12:04;39.85;;;15.60;;
72388;SDS011;60566;48.062;9.930;2022-12-18T02:14:34;40.85;;;15.75;;
72388;SDS011;60566;48.062;9.930;2022-12-18T02:17:04;48.10;;;15.55;;
72388;SDS011;60566;48.062;9.930;2022-12-18T02:19:37;45.25;;;16.02;;
72388;SDS011;60566;48.062;9.930;2022-12-18T02:22:10;38.72;;;14.77;;
72388;SDS011;60566;48.062;9.930;2022-12-18T02:24:44;43.10;;;15.35;;
72388;SDS011;60566;48.062;9.930;2022-12-18T02:27:21;41.55;;;14.70;;
72388;SDS011;60566;48.062;9.930;2022-12-18T02:29:48;32.90;;;11.93;;
72388;SDS011;60566;48.062;9.930;2022-12-18T02:32:16;33.78;;;13.93;;
72388;SDS011;60566;48.062;9.930;2022-12-18T02:34:44;33.20;;;14.25;;
72388;SDS011;60566;48.062;9.930;2022-12-18T02:37:12;33.80;;;14.20;;
72388;SDS011;60566;48.062;9.930;2022-12-18T02:39:40;41.47;;;15.70;;
72388;SDS011;60566;48.062;9.930;2022-12-18T02:42:07;35.65;;;15.27;;
72388;SDS011;60566;48.062;9.930;2022-12-18T02:44:33;39.97;;;16.20;;
72388;SDS011;60566;48.062;9.930;2022-12-18T02:46:59;40.50;;;14.75;;
72388;SDS011;60566;48.062;9.930;2022-12-18T02:49:26;38.15;;;14.48;;
72388;SDS011;60566;48.062;9.930;2022-12-18T02:51:59;34.05;;;13.00;;
72388;SDS011;60566;48.062;9.930;2022-12-18T02:54:31;38.35;;;13.70;;
72388;SDS011;60566;48.062;9.930;2022-12-18T02:57:03;33.40;;;14.93;;
72388;SDS011;60566;48.062;9.930;2022-12-18T02:59:36;39.83;;;14.50;;
72388;SDS011;60566;48.062;9.930;2022-12-18T03:02:07;44.47;;;13.65;;
72388;SDS011;60566;48.062;9.930;2022-12-18T03:04:39;34.67;;;13.25;;
72388;SDS011;60566;48.062;9.930;2022-12-18T03:07:09;33.58;;;13.98;;
72388;SDS011;60566;48.062;9.930;2022-12-18T03:09:37;31.30;;;12.25;;
72388;SDS011;60566;48.062;9.930;2022-12-18T03:12:06;34.75;;;14.05;;
72388;SDS011;60566;48.062;9.930;2022-12-18T03:14:36;33.28;;;14.52;;
72388;SDS011;60566;48.062;9.930;2022-12-18T03:17:03;33.00;;;14.43;;
72388;SDS011;60566;48.062;9.930;2022-12-18T03:19:31;42.08;;;12.65;;
72388;SDS011;60566;48.062;9.930;2022-12-18T03:21:57;37.35;;;14.27;;
72388;SDS011;60566;48.062;9.930;2022-12-18T03:24:25;36.90;;;13.77;;
72388;SDS011;60566;48.062;9.930;2022-12-18T03:26:52;42.75;;;17.13;;
72388;SDS011;60566;48.062;9.930;2022-12-18T03:29:20;41.88;;;16.52;;
72388;SDS011;60566;48.062;9.930;2022-12-18T03:31:51;41.30;;;15.10;;
72388;SDS011;60566;48.062;9.930;2022-12-18T03:34:20;33.83;;;16.25;;
72388;SDS011;60566;48.062;9.930;2022-12-18T03:36:48;35.03;;;12.88;;
72388;SDS011;60566;48.062;9.930;2022-12-18T03:39:13;40.78;;;15.00;;
72388;SDS011;60566;48.062;9.930;2022-12-18T03:41:41;39.00;;;14.98;;
72388;SDS011;60566;48.062;9.930;2022-12-18T03:44:10;39.55;;;14.20;;
72388;SDS011;60566;48.062;9.930;2022-12-18T03:46:39;35.80;;;12.93;;
72388;SDS011;60566;48.062;9.930;2022-12-18T03:49:09;33.13;;;14.63;;
72388;SDS011;60566;48.062;9.930;2022-12-18T03:51:38;42.53;;;13.45;;
72388;SDS011;60566;48.062;9.930;2022-12-18T03:54:07;41.40;;;14.73;;
72388;SDS011;60566;48.062;9.930;2022-12-18T03:56:35;35.90;;;15.35;;
72388;SDS011;60566;48.062;9.930;2022-12-18T03:59:02;35.35;;;13.23;;
72388;SDS011;60566;48.062;9.930;2022-12-18T04:01:31;39.17;;;16.05;;
72388;SDS011;60566;48.062;9.930;2022-12-18T04:04:00;42.80;;;15.18;;
72388;SDS011;60566;48.062;9.930;2022-12-18T04:06:27;35.33;;;16.35;;
72388;SDS011;60566;48.062;9.930;2022-12-18T04:08:53;39.60;;;16.13;;
72388;SDS011;60566;48.062;9.930;2022-12-18T04:11:18;39.00;;;15.55;;
72388;SDS011;60566;48.062;9.930;2022-12-18T04:13:44;38.20;;;15.00;;
72388;SDS011;60566;48.062;9.930;2022-12-18T04:16:09;32.33;;;13.68;;
72388;SDS011;60566;48.062;9.930;2022-12-18T04:18:35;36.67;;;13.57;;
72388;SDS011;60566;48.062;9.930;2022-12-18T04:21:01;41.03;;;15.07;;
72388;SDS011;60566;48.062;9.930;2022-12-18T04:23:28;33.28;;;13.00;;
72388;SDS011;60566;48.062;9.930;2022-12-18T04:25:53;38.92;;;15.75;;
72388;SDS011;60566;48.062;9.930;2022-12-18T04:28:19;45.10;;;15.10;;
72388;SDS011;60566;48.062;9.930;2022-12-18T04:30:44;45.80;;;15.15;;
72388;SDS011;60566;48.062;9.930;2022-12-18T04:33:10;46.78;;;15.48;;
72388;SDS011;60566;48.062;9.930;2022-12-18T04:35:35;38.35;;;14.18;;
72388;SDS011;60566;48.062;9.930;2022-12-18T04:38:01;30.38;;;11.20;;
72388;SDS011;60566;48.062;9.930;2022-12-18T04:40:28;32.30;;;12.23;;
72388;SDS011;60566;48.062;9.930;2022-12-18T04:42:53;40.70;;;16.65;;
72388;SDS011;60566;48.062;9.930;2022-12-18T04:45:19;36.97;;;13.75;;
72388;SDS011;60566;48.062;9.930;2022-12-18T04:47:44;37.03;;;13.65;;
72388;SDS011;60566;48.062;9.930;2022-12-18T04:50:09;40.40;;;13.07;;
72388;SDS011;60566;48.062;9.930;2022-12-18T04:52:35;30.63;;;11.80;;
72388;SDS011;60566;48.062;9.930;2022-12-18T04:55:00;35.67;;;12.40;;
72388;SDS011;60566;48.062;9.930;2022-12-18T04:57:27;42.53;;;14.95;;
72388;SDS011;60566;48.062;9.930;2022-12-18T04:59:52;43.92;;;15.50;;
72388;SDS011;60566;48.062;9.930;2022-12-18T05:02:18;42.05;;;16.25;;
72388;SDS011;60566;48.062;9.930;2022-12-18T05:04:43;28.70;;;11.75;;
72388;SDS011;60566;48.062;9.930;2022-12-18T05:07:09;33.35;;;12.50;;
72388;SDS011;60566;48.062;9.930;2022-12-18T05:09:34;37.40;;;12.68;;
72388;SDS011;60566;48.062;9.930;2022-12-18T05:11:59;35.50;;;15.98;;
72388;SDS011;60566;48.062;9.930;2022-12-18T05:14:26;46.15;;;14.73;;
72388;SDS011;60566;48.062;9.930;2022-12-18T05:16:52;34.97;;;14.20;;
72388;SDS011;60566;48.062;9.930;2022-12-18T05:19:17;35.20;;;13.52;;
72388;SDS011;60566;48.062;9.930;2022-12-18T05:21:42;40.28;;;14.82;;
72388;SDS011;60566;48.062;9.930;2022-12-18T05:24:08;37.85;;;13.93;;
72388;SDS011;60566;48.062;9.930;2022-12-18T05:26:33;43.08;;;15.32;;
72388;SDS011;60566;48.062;9.930;2022-12-18T05:28:58;36.38;;;13.40;;
72388;SDS011;60566;48.062;9.930;2022-12-18T05:31:25;40.05;;;14.07;;
72388;SDS011;60566;48.062;9.930;2022-12-18T05:33:51;38.28;;;15.07;;
72388;SDS011;60566;48.062;9.930;2022-12-18T05:36:16;37.85;;;15.30;;
72388;SDS011;60566;48.062;9.930;2022-12-18T05:38:41;38.25;;;12.77;;
72388;SDS011;60566;48.062;9.930;2022-12-18T05:41:07;39.22;;;15.07;;
72388;SDS011;60566;48.062;9.930;2022-12-18T05:43:34;42.53;;;15.65;;
72388;SDS011;60566;48.062;9.930;2022-12-18T05:46:02;34.28;;;13.18;;
72388;SDS011;60566;48.062;9.930;2022-12-18T05:48:30;37.75;;;13.95;;
72388;SDS011;60566;48.062;9.930;2022-12-18T05:50:55;32.40;;;13.25;;
72388;SDS011;60566;48.062;9.930;2022-12-18T05:53:20;34.95;;;12.73;;
72388;SDS011;60566;48.062;9.930;2022-12-18T05:55:46;36.78;;;13.57;;
72388;SDS011;60566;48.062;9.930;2022-12-18T05:58:12;38.53;;;13.15;;
72388;SDS011;60566;48.062;9.930;2022-12-18T06:00:39;32.72;;;12.18;;
72388;SDS011;60566;48.062;9.930;2022-12-18T06:03:09;42.20;;;15.27;;
72388;SDS011;60566;48.062;9.930;2022-12-18T06:05:37;30.67;;;12.88;;
72388;SDS011;60566;48.062;9.930;2022-12-18T06:08:03;40.42;;;15.77;;
72388;SDS011;60566;48.062;9.930;2022-12-18T06:10:29;53.05;;;21.60;;
72388;SDS011;60566;48.062;9.930;2022-12-18T06:12:54;58.03;;;23.83;;
72388;SDS011;60566;48.062;9.930;2022-12-18T06:15:20;47.17;;;18.58;;
72388;SDS011;60566;48.062;9.930;2022-12-18T06:17:45;36.60;;;14.93;;
72388;SDS011;60566;48.062;9.930;2022-12-18T06:20:10;33.28;;;12.82;;
72388;SDS011;60566;48.062;9.930;2022-12-18T06:22:37;37.05;;;11.93;;
72388;SDS011;60566;48.062;9.930;2022-12-18T06:25:03;27.08;;;11.75;;
72388;SDS011;60566;48.062;9.930;2022-12-18T06:27:29;64.43;;;26.90;;
72388;SDS011;60566;48.062;9.930;2022-12-18T06:29:55;40.42;;;12.35;;
72388;SDS011;60566;48.062;9.930;2022-12-18T06:32:20;41.80;;;17.20;;
72388;SDS011;60566;48.062;9.930;2022-12-18T06:34:45;38.33;;;15.60;;
72388;SDS011;60566;48.062;9.930;2022-12-18T06:37:11;50.17;;;18.95;;
72388;SDS011;60566;48.062;9.930;2022-12-18T06:39:38;40.25;;;18.13;;
72388;SDS011;60566;48.062;9.930;2022-12-18T06:42:03;34.53;;;13.52;;
72388;SDS011;60566;48.062;9.930;2022-12-18T06:44:29;49.38;;;14.52;;
72388;SDS011;60566;48.062;9.930;2022-12-18T06:46:54;41.28;;;14.10;;
72388;SDS011;60566;48.062;9.930;2022-12-18T06:49:20;42.10;;;13.65;;
72388;SDS011;60566;48.062;9.930;2022-12-18T06:51:45;38.13;;;13.32;;
72388;SDS011;60566;48.062;9.930;2022-12-18T06:54:11;45.65;;;16.08;;
72388;SDS011;60566;48.062;9.930;2022-12-18T06:56:38;33.08;;;12.80;;
72388;SDS011;60566;48.062;9.930;2022-12-18T06:59:03;41.55;;;14.02;;
72388;SDS011;60566;48.062;9.930;2022-12-18T07:01:28;37.25;;;14.38;;
72388;SDS011;60566;48.062;9.930;2022-12-18T07:03:54;39.25;;;14.55;;
72388;SDS011;60566;48.062;9.930;2022-12-18T07:06:21;38.38;;;16.25;;
72388;SDS011;60566;48.062;9.930;2022-12-18T07:08:48;48.33;;;16.10;;
72388;SDS011;60566;48.062;9.930;2022-12-18T07:11:14;35.05;;;14.50;;
72388;SDS011;60566;48.062;9.930;2022-12-18T07:13:41;40.17;;;15.07;;
72388;SDS011;60566;48.062;9.930;2022-12-18T07:16:07;39.65;;;12.80;;
72388;SDS011;60566;48.062;9.930;2022-12-18T07:18:34;35.80;;;14.48;;
72388;SDS011;60566;48.062;9.930;2022-12-18T07:21:02;45.60;;;15.07;;
72388;SDS011;60566;48.062;9.930;2022-12-18T07:23:28;42.83;;;14.30;;
72388;SDS011;60566;48.062;9.930;2022-12-18T07:25:53;45.33;;;15.45;;
72388;SDS011;60566;48.062;9.930;2022-12-18T07:28:18;42.00;;;13.75;;
72388;SDS011;60566;48.062;9.930;2022-12-18T07:30:45;38.95;;;14.23;;
72388;SDS011;60566;48.062;9.930;2022-12-18T07:33:11;29.45;;;11.18;;
72388;SDS011;60566;48.062;9.930;2022-12-18T07:35:36;31.15;;;11.75;;
72388;SDS011;60566;48.062;9.930;2022-12-18T07:38:02;33.97;;;12.20;;
72388;SDS011;60566;48.062;9.930;2022-12-18T07:40:27;39.75;;;13.15;;
72388;SDS011;60566;48.062;9.930;2022-12-18T07:42:52;40.25;;;12.35;;
72388;SDS011;60566;48.062;9.930;2022-12-18T07:45:18;42.53;;;12.82;;
72388;SDS011;60566;48.062;9.930;2022-12-18T07:47:45;33.90;;;11.80;;
72388;SDS011;60566;48.062;9.930;2022-12-18T07:50:10;30.08;;;10.70;;
72388;SDS011;60566;48.062;9.930;2022-12-18T07:52:35;35.45;;;13.93;;
72388;SDS011;60566;48.062;9.930;2022-12-18T07:55:01;32.03;;;11.88;;
72388;SDS011;60566;48.062;9.930;2022-12-18T07:57:26;37.38;;;12.80;;
72388;SDS011;60566;48.062;9.930;2022-12-18T07:59:52;32.92;;;12.40;;
72388;SDS011;60566;48.062;9.930;2022-12-18T08:02:17;36.88;;;11.75;;
72388;SDS011;60566;48.062;9.930;2022-12-18T08:04:46;30.40;;;11.52;;
72388;SDS011;60566;48.062;9.930;2022-12-18T08:07:11;30.83;;;12.60;;
72388;SDS011;60566;48.062;9.930;2022-12-18T08:09:36;32.78;;;10.85;;
72388;SDS011;60566;48.062;9.930;2022-12-18T08:12:02;29.27;;;12.55;;
72388;SDS011;60566;48.062;9.930;2022-12-18T08:14:28;29.88;;;9.70;;
72388;SDS011;60566;48.062;9.930;2022-12-18T08:16:53;31.98;;;12.45;;
72388;SDS011;60566;48.062;9.930;2022-12-18T08:19:18;35.35;;;12.18;;
72388;SDS011;60566;48.062;9.930;2022-12-18T08:21:45;27.15;;;10.82;;
72388;SDS011;60566;48.062;9.930;2022-12-18T08:24:10;28.30;;;9.77;;
72388;SDS011;60566;48.062;9.930;2022-12-18T08:26:36;28.52;;;11.93;;
72388;SDS011;60566;48.062;9.930;2022-12-18T08:29:01;28.10;;;10.88;;
72388;SDS011;60566;48.062;9.930;2022-12-18T08:31:27;28.17;;;10.00;;
72388;SDS011;60566;48.062;9.930;2022-12-18T08:33:54;26.38;;;10.63;;
72388;SDS011;60566;48.062;9.930;2022-12-18T08:36:20;26.52;;;10.77;;
72388;SDS011;60566;48.062;9.930;2022-12-18T08:38:47;29.38;;;11.02;;
72388;SDS011;60566;48.062;9.930;2022-12-18T08:41:14;33.17;;;11.45;;
72388;SDS011;60566;48.062;9.930;2022-12-18T08:43:40;30.35;;;11.10;;
72388;SDS011;60566;48.062;9.930;2022-12-18T08:46:06;30.50;;;10.75;;
72388;SDS011;60566;48.062;9.930;2022-12-18T08:48:31;31.40;;;10.73;;
72388;SDS011;60566;48.062;9.930;2022-12-18T08:50:57;34.33;;;11.35;;
72388;SDS011;60566;48.062;9.930;2022-12-18T08:53:24;30.95;;;10.38;;
72388;SDS011;60566;48.062;9.930;2022-12-18T08:55:51;28.80;;;9.50;;
72388;SDS011;60566;48.062;9.930;2022-12-18T08:58:17;28.55;;;9.80;;
72388;SDS011;60566;48.062;9.930;2022-12-18T09:00:42;35.08;;;13.95;;
72388;SDS011;60566;48.062;9.930;2022-12-18T09:03:10;26.10;;;11.00;;
72388;SDS011;60566;48.062;9.930;2022-12-18T09:05:36;30.98;;;12.13;;
72388;SDS011;60566;48.062;9.930;2022-12-18T09:08:01;34.83;;;11.48;;
72388;SDS011;60566;48.062;9.930;2022-12-18T09:10:27;28.48;;;10.27;;
72388;SDS011;60566;48.062;9.930;2022-12-18T09:12:54;29.17;;;10.80;;
72388;SDS011;60566;48.062;9.930;2022-12-18T09:15:19;26.15;;;9.77;;
72388;SDS011;60566;48.062;9.930;2022-12-18T09:17:45;30.27;;;12.57;;
72388;SDS011;60566;48.062;9.930;2022-12-18T09:20:10;29.67;;;10.70;;
72388;SDS011;60566;48.062;9.930;2022-12-18T09:22:35;34.45;;;11.40;;
72388;SDS011;60566;48.062;9.930;2022-12-18T09:25:01;25.52;;;11.15;;
72388;SDS011;60566;48.062;9.930;2022-12-18T09:27:26;33.58;;;9.70;;
72388;SDS011;60566;48.062;9.930;2022-12-18T09:29:53;29.25;;;10.32;;
72388;SDS011;60566;48.062;9.930;2022-12-18T09:32:18;32.30;;;11.27;;
72388;SDS011;60566;48.062;9.930;2022-12-18T09:34:44;25.75;;;9.57;;
72388;SDS011;60566;48.062;9.930;2022-12-18T09:37:10;28.92;;;10.60;;
72388;SDS011;60566;48.062;9.930;2022-12-18T09:39:35;32.67;;;10.18;;
72388;SDS011;60566;48.062;9.930;2022-12-18T09:42:01;30.02;;;10.18;;
72388;SDS011;60566;48.062;9.930;2022-12-18T09:44:27;23.00;;;10.18;;
72388;SDS011;60566;48.062;9.930;2022-12-18T09:46:59;31.83;;;11.20;;
72388;SDS011;60566;48.062;9.930;2022-12-18T09:49:30;33.90;;;10.73;;
72388;SDS011;60566;48.062;9.930;2022-12-18T09:54:25;27.42;;;11.20;;
72388;SDS011;60566;48.062;9.930;2022-12-18T09:56:54;27.60;;;8.77;;
72388;SDS011;60566;48.062;9.930;2022-12-18T09:59:22;22.85;;;8.90;;
72388;SDS011;60566;48.062;9.930;2022-12-18T10:01:49;29.30;;;10.60;;
72388;SDS011;60566;48.062;9.930;2022-12-18T10:04:16;25.90;;;10.43;;
72388;SDS011;60566;48.062;9.930;2022-12-18T10:06:43;24.95;;;10.10;;
72388;SDS011;60566;48.062;9.930;2022-12-18T10:09:15;31.48;;;11.27;;
72388;SDS011;60566;48.062;9.930;2022-12-18T10:11:47;27.90;;;10.90;;
72388;SDS011;60566;48.062;9.930;2022-12-18T10:14:18;30.98;;;9.73;;
72388;SDS011;60566;48.062;9.930;2022-12-18T10:16:52;29.92;;;11.20;;
72388;SDS011;60566;48.062;9.930;2022-12-18T10:19:26;24.85;;;11.10;;
72388;SDS011;60566;48.062;9.930;2022-12-18T10:22:01;25.40;;;10.70;;
72388;SDS011;60566;48.062;9.930;2022-12-18T10:24:35;31.50;;;11.23;;
72388;SDS011;60566;48.062;9.930;2022-12-18T10:27:09;29.92;;;9.93;;
72388;SDS011;60566;48.062;9.930;2022-12-18T10:29:38;28.15;;;10.25;;
72388;SDS011;60566;48.062;9.930;2022-12-18T10:32:03;27.15;;;11.23;;
72388;SDS011;60566;48.062;9.930;2022-12-18T10:34:30;28.55;;;10.45;;
72388;SDS011;60566;48.062;9.930;2022-12-18T10:36:55;30.08;;;11.32;;
72388;SDS011;60566;48.062;9.930;2022-12-18T10:39:22;27.02;;;9.50;;
72388;SDS011;60566;48.062;9.930;2022-12-18T10:41:49;28.15;;;9.93;;
72388;SDS011;60566;48.062;9.930;2022-12-18T10:44:18;30.85;;;10.65;;
72388;SDS011;60566;48.062;9.930;2022-12-18T10:46:44;29.73;;;10.43;;
72388;SDS011;60566;48.062;9.930;2022-12-18T10:49:18;28.80;;;10.93;;
72388;SDS011;60566;48.062;9.930;2022-12-18T10:51:46;28.33;;;11.00;;
72388;SDS011;60566;48.062;9.930;2022-12-18T10:54:13;28.17;;;10.90;;
72388;SDS011;60566;48.062;9.930;2022-12-18T10:56:40;23.15;;;8.52;;
72388;SDS011;60566;48.062;9.930;2022-12-18T10:59:06;33.38;;;11.02;;
72388;SDS011;60566;48.062;9.930;2022-12-18T11:01:44;29.23;;;9.27;;
72388;SDS011;60566;48.062;9.930;2022-12-18T11:04:13;29.25;;;10.50;;
72388;SDS011;60566;48.062;9.930;2022-12-18T11:06:53;27.67;;;11.13;;
72388;SDS011;60566;48.062;9.930;2022-12-18T11:09:21;24.83;;;9.60;;
72388;SDS011;60566;48.062;9.930;2022-12-18T11:11:48;28.25;;;10.50;;
72388;SDS011;60566;48.062;9.930;2022-12-18T11:14:15;27.45;;;9.55;;
72388;SDS011;60566;48.062;9.930;2022-12-18T11:16:44;25.17;;;9.48;;
72388;SDS011;60566;48.062;9.930;2022-12-18T11:19:13;29.50;;;10.07;;
72388;SDS011;60566;48.062;9.930;2022-12-18T11:21:44;28.42;;;9.57;;
72388;SDS011;60566;48.062;9.930;2022-12-18T11:24:17;26.98;;;10.00;;
72388;SDS011;60566;48.062;9.930;2022-12-18T11:26:45;26.80;;;9.32;;
72388;SDS011;60566;48.062;9.930;2022-12-18T11:29:16;30.23;;;11.25;;
72388;SDS011;60566;48.062;9.930;2022-12-18T11:31:42;27.65;;;11.68;;
72388;SDS011;60566;48.062;9.930;2022-12-18T11:34:08;30.15;;;10.45;;
72388;SDS011;60566;48.062;9.930;2022-12-18T11:36:37;23.83;;;9.57;;
72388;SDS011;60566;48.062;9.930;2022-12-18T11:39:06;28.00;;;10.45;;
72388;SDS011;60566;48.062;9.930;2022-12-18T11:41:40;27.60;;;9.73;;
72388;SDS011;60566;48.062;9.930;2022-12-18T11:44:10;22.75;;;8.75;;
72388;SDS011;60566;48.062;9.930;2022-12-18T11:46:37;33.35;;;10.82;;
72388;SDS011;60566;48.062;9.930;2022-12-18T11:49:06;28.15;;;9.63;;
72388;SDS011;60566;48.062;9.930;2022-12-18T11:51:37;27.35;;;10.95;;
72388;SDS011;60566;48.062;9.930;2022-12-18T11:54:08;30.52;;;11.40;;
72388;SDS011;60566;48.062;9.930;2022-12-18T11:56:35;23.70;;;10.13;;
72388;SDS011;60566;48.062;9.930;2022-12-18T11:59:05;29.67;;;11.35;;
72388;SDS011;60566;48.062;9.930;2022-12-18T12:01:36;31.85;;;11.80;;
72388;SDS011;60566;48.062;9.930;2022-12-18T12:07:09;45.90;;;14.18;;
72388;SDS011;60566;48.062;9.930;2022-12-18T12:09:44;57.08;;;17.42;;
72388;SDS011;60566;48.062;9.930;2022-12-18T12:12:16;29.25;;;10.85;;
72388;SDS011;60566;48.062;9.930;2022-12-18T12:14:51;29.05;;;10.13;;
72388;SDS011;60566;48.062;9.930;2022-12-18T12:17:22;34.85;;;11.48;;
72388;SDS011;60566;48.062;9.930;2022-12-18T12:19:54;29.60;;;11.23;;
72388;SDS011;60566;48.062;9.930;2022-12-18T12:22:27;29.00;;;10.63;;
72388;SDS011;60566;48.062;9.930;2022-12-18T12:24:59;36.38;;;12.50;;
72388;SDS011;60566;48.062;9.930;2022-12-18T12:27:33;28.48;;;11.23;;
72388;SDS011;60566;48.062;9.930;2022-12-18T12:30:05;28.20;;;10.20;;
72388;SDS011;60566;48.062;9.930;2022-12-18T12:32:45;27.52;;;10.85;;
72388;SDS011;60566;48.062;9.930;2022-12-18T12:35:22;28.02;;;11.82;;
72388;SDS011;60566;48.062;9.930;2022-12-18T12:37:56;23.80;;;9.80;;
72388;SDS011;60566;48.062;9.930;2022-12-18T12:40:29;24.77;;;9.18;;
72388;SDS011;60566;48.062;9.930;2022-12-18T12:42:58;31.25;;;10.20;;
72388;SDS011;60566;48.062;9.930;2022-12-18T12:45:28;26.77;;;11.23;;
72388;SDS011;60566;48.062;9.930;2022-12-18T12:47:58;33.20;;;11.82;;
72388;SDS011;60566;48.062;9.930;2022-12-18T12:50:26;28.42;;;11.27;;
72388;SDS011;60566;48.062;9.930;2022-12-18T12:52:53;36.80;;;10.73;;
72388;SDS011;60566;48.062;9.930;2022-12-18T12:55:20;26.45;;;9.82;;
72388;SDS011;60566;48.062;9.930;2022-12-18T12:57:48;30.35;;;12.52;;
72388;SDS011;60566;48.062;9.930;2022-12-18T13:00:19;32.50;;;11.02;;
72388;SDS011;60566;48.062;9.930;2022-12-18T13:02:47;26.58;;;8.60;;
72388;SDS011;60566;48.062;9.930;2022-12-18T13:05:17;37.92;;;10.25;;
72388;SDS011;60566;48.062;9.930;2022-12-18T13:07:47;28.45;;;11.93;;
72388;SDS011;60566;48.062;9.930;2022-12-18T13:12:59;34.85;;;11.95;;
72388;SDS011;60566;48.062;9.930;2022-12-18T13:15:28;33.67;;;11.75;;
72388;SDS011;60566;48.062;9.930;2022-12-18T13:18:19;30.80;;;11.77;;
72388;SDS011;60566;48.062;9.930;2022-12-18T13:20:46;28.00;;;10.60;;
72388;SDS011;60566;48.062;9.930;2022-12-18T13:26:00;32.03;;;11.18;;
72388;SDS011;60566;48.062;9.930;2022-12-18T13:28:55;34.00;;;11.80;;
72388;SDS011;60566;48.062;9.930;2022-12-18T13:34:34;31.58;;;12.20;;
72388;SDS011;60566;48.062;9.930;2022-12-18T13:43:23;33.97;;;10.23;;
72388;SDS011;60566;48.062;9.930;2022-12-18T13:45:58;32.78;;;12.00;;
72388;SDS011;60566;48.062;9.930;2022-12-18T13:48:25;33.90;;;11.32;;
72388;SDS011;60566;48.062;9.930;2022-12-18T13:50:53;30.20;;;11.32;;
72388;SDS011;60566;48.062;9.930;2022-12-18T13:53:23;24.98;;;9.73;;
72388;SDS011;60566;48.062;9.930;2022-12-18T13:55:51;37.08;;;12.63;;
72388;SDS011;60566;48.062;9.930;2022-12-18T13:58:16;36.17;;;14.55;;
72388;SDS011;60566;48.062;9.930;2022-12-18T14:00:42;41.92;;;12.10;;
72388;SDS011;60566;48.062;9.930;2022-12-18T14:03:15;32.35;;;11.52;;
72388;SDS011;60566;48.062;9.930;2022-12-18T14:05:42;36.50;;;12.35;;
72388;SDS011;60566;48.062;9.930;2022-12-18T14:08:11;35.10;;;11.32;;
72388;SDS011;60566;48.062;9.930;2022-12-18T14:10:39;40.88;;;12.20;;
72388;SDS011;60566;48.062;9.930;2022-12-18T14:13:06;35.08;;;12.10;;
72388;SDS011;60566;48.062;9.930;2022-12-18T14:15:34;37.30;;;12.85;;
72388;SDS011;60566;48.062;9.930;2022-12-18T14:18:02;32.55;;;12.75;;
72388;SDS011;60566;48.062;9.930;2022-12-18T14:20:34;40.95;;;14.38;;
72388;SDS011;60566;48.062;9.930;2022-12-18T14:22:59;31.42;;;11.88;;
72388;SDS011;60566;48.062;9.930;2022-12-18T14:25:26;32.67;;;11.57;;
72388;SDS011;60566;48.062;9.930;2022-12-18T14:27:52;35.05;;;12.18;;
72388;SDS011;60566;48.062;9.930;2022-12-18T14:30:25;35.00;;;12.98;;
72388;SDS011;60566;48.062;9.930;2022-12-18T14:32:59;37.70;;;11.68;;
72388;SDS011;60566;48.062;9.930;2022-12-18T14:35:25;31.35;;;11.05;;
72388;SDS011;60566;48.062;9.930;2022-12-18T14:37:50;30.45;;;11.43;;
72388;SDS011;60566;48.062;9.930;2022-12-18T14:40:16;27.50;;;10.55;;
72388;SDS011;60566;48.062;9.930;2022-12-18T14:42:42;34.38;;;12.13;;
72388;SDS011;60566;48.062;9.930;2022-12-18T14:47:59;33.88;;;11.30;;
72388;SDS011;60566;48.062;9.930;2022-12-18T14:50:25;32.67;;;10.32;;
72388;SDS011;60566;48.062;9.930;2022-12-18T14:52:50;28.45;;;10.60;;